Time;durP1;ratioP1;P1;durP2;ratioP2;P2;SDS_P1;SDS_P2;PMS_P1;PMS_P2;Temp;Humidity;BMP_temperature;BMP_pressure;BME280_temperature;BME280_humidity;BME280_pressure;Samples;Min_cycle;Max_cycle;Signal;HPM_P1;HPM_P2
2022/04/30 00:00:52;;;;;;;;;;;21.40;38.70;;;;;;5169293;27;20352;-59
2022/04/30 00:03:19;;;;;;;;;;;21.50;38.80;;;;;;5163928;27;19926;-59
2022/04/30 00:05:44;;;;;;;;;;;21.40;38.60;;;;;;5163815;27;20180;-60
2022/04/30 00:08:10;;;;;;;;;;;21.40;38.70;;;;;;5169248;27;20021;-61
2022/04/30 00:10:39;;;;;;;;;;;21.40;38.80;;;;;;5160028;27;20370;-57
2022/04/30 00:13:06;;;;;;;;;;;21.30;38.90;;;;;;5167290;27;19966;-58
2022/04/30 00:15:34;;;;;;;;;;;21.30;39.00;;;;;;5165012;27;19930;-59
2022/04/30 00:18:00;;;;;;;;;;;21.30;38.90;;;;;;5163611;27;20282;-57
2022/04/30 00:20:26;;;;;;;;;;;21.30;38.80;;;;;;5169100;27;19923;-58
2022/04/30 00:22:52;;;;;;;;;;;21.30;38.80;;;;;;5163537;27;20285;-57
2022/04/30 00:25:17;;;;;;;;;;;21.30;38.60;;;;;;5163743;27;19979;-59
2022/04/30 00:27:43;;;;;;;;;;;21.40;38.10;;;;;;5166798;27;19929;-60
2022/04/30 00:30:09;;;;;;;;;;;21.50;38.20;;;;;;5161047;27;19930;-58
2022/04/30 00:32:36;;;;;;;;;;;21.30;38.40;;;;;;5163760;27;19933;-57
2022/04/30 00:35:02;;;;;;;;;;;21.50;37.80;;;;;;5168270;27;20033;-56
2022/04/30 00:37:28;;;;;;;;;;;21.50;37.30;;;;;;5163206;27;19923;-59
2022/04/30 00:39:54;;;;;;;;;;;21.40;36.90;;;;;;5168753;27;19923;-59
2022/04/30 00:42:20;;;;;;;;;;;21.50;36.70;;;;;;5163165;27;19930;-58
2022/04/30 00:44:47;;;;;;;;;;;21.50;36.50;;;;;;5163216;27;20425;-60
2022/04/30 00:47:16;;;;;;;;;;;21.40;36.40;;;;;;5164844;27;19922;-56
2022/04/30 00:49:42;;;;;;;;;;;21.50;36.20;;;;;;5162099;27;19926;-58
2022/04/30 00:52:08;;;;;;;;;;;21.50;36.20;;;;;;5142542;27;20195;-59
2022/04/30 00:54:35;;;;;;;;;;;21.60;36.10;;;;;;5168375;27;19952;-59
2022/04/30 00:57:02;;;;;;;;;;;21.60;36.00;;;;;;5163004;27;20515;-59
2022/04/30 00:59:27;;;;;;;;;;;21.60;36.00;;;;;;5150029;27;20392;-59
2022/04/30 01:01:57;;;;;;;;;;;21.70;35.90;;;;;;5144370;27;19929;-58
2022/04/30 01:04:23;;;;;;;;;;;21.70;36.00;;;;;;5160987;27;19990;-57
2022/04/30 01:06:50;;;;;;;;;;;21.70;36.30;;;;;;5165901;27;19974;-60
2022/04/30 01:09:21;;;;;;;;;;;21.50;36.70;;;;;;5162435;27;19986;-58
2022/04/30 01:11:48;;;;;;;;;;;21.60;36.70;;;;;;5162562;27;19929;-59
2022/04/30 01:14:14;;;;;;;;;;;21.60;37.00;;;;;;5148274;27;19923;-57
2022/04/30 01:16:40;;;;;;;;;;;21.60;37.10;;;;;;5162598;27;20402;-58
2022/04/30 01:19:06;;;;;;;;;;;21.60;37.20;;;;;;5162601;27;19923;-58
2022/04/30 01:21:32;;;;;;;;;;;21.60;37.60;;;;;;5168112;27;19991;-58
2022/04/30 01:23:58;;;;;;;;;;;21.60;37.80;;;;;;5140253;27;19933;-59
2022/04/30 01:26:24;;;;;;;;;;;21.50;38.20;;;;;;5148250;27;19949;-57
2022/04/30 01:28:50;;;;;;;;;;;21.50;38.50;;;;;;5162309;27;20368;-56
2022/04/30 01:39:29;;;;;;;;;;;21.40;39.70;;;;;;5162439;27;19971;-56
2022/04/30 01:41:55;;;;;;;;;;;21.50;39.90;;;;;;5164626;27;20323;-59
2022/04/30 01:44:21;;;;;;;;;;;21.50;40.00;;;;;;5160719;27;20497;-58
2022/04/30 01:46:47;;;;;;;;;;;21.30;40.40;;;;;;5161811;27;20021;-59
2022/04/30 01:49:16;;;;;;;;;;;21.30;40.50;;;;;;5167421;27;20012;-59
2022/04/30 01:51:48;;;;;;;;;;;21.30;40.60;;;;;;5161982;27;19929;-60
2022/04/30 01:54:14;;;;;;;;;;;21.40;40.50;;;;;;5167267;27;20462;-58
2022/04/30 01:56:40;;;;;;;;;;;21.40;40.70;;;;;;5174527;27;19923;-58
2022/04/30 01:59:06;;;;;;;;;;;21.30;40.80;;;;;;5167870;27;20967;-57
2022/04/30 02:01:32;;;;;;;;;;;21.30;40.90;;;;;;5168814;27;20386;-57
2022/04/30 02:03:58;;;;;;;;;;;21.50;40.70;;;;;;5171625;27;19962;-58
2022/04/30 02:06:24;;;;;;;;;;;21.40;41.00;;;;;;5150231;27;19931;-58
2022/04/30 02:08:50;;;;;;;;;;;21.30;41.10;;;;;;5174481;27;19958;-59
2022/04/30 02:11:16;;;;;;;;;;;21.50;40.90;;;;;;5168963;27;19934;-57
2022/04/30 02:13:46;;;;;;;;;;;21.50;40.80;;;;;;5168853;27;20021;-57
2022/04/30 02:16:11;;;;;;;;;;;21.50;40.90;;;;;;5156175;27;20074;-59
2022/04/30 02:18:37;;;;;;;;;;;21.40;41.00;;;;;;5147405;27;19922;-58
2022/04/30 02:21:03;;;;;;;;;;;21.40;41.10;;;;;;5148693;27;19922;-56
2022/04/30 02:23:30;;;;;;;;;;;21.50;41.00;;;;;;5155133;27;19930;-59
2022/04/30 02:25:56;;;;;;;;;;;21.50;41.10;;;;;;5149859;27;20322;-58
2022/04/30 02:28:21;;;;;;;;;;;21.40;41.20;;;;;;5174070;27;19943;-59
2022/04/30 02:30:48;;;;;;;;;;;21.40;41.20;;;;;;5168565;27;20397;-58
2022/04/30 02:33:15;;;;;;;;;;;21.30;41.30;;;;;;5168654;27;20377;-59
2022/04/30 02:35:44;;;;;;;;;;;21.50;41.10;;;;;;5173187;27;20062;-59
2022/04/30 02:38:10;;;;;;;;;;;21.50;41.00;;;;;;5165568;27;19923;-55
2022/04/30 02:40:36;;;;;;;;;;;21.40;41.10;;;;;;5149429;27;19933;-58
2022/04/30 02:43:04;;;;;;;;;;;21.30;41.20;;;;;;5173958;27;20408;-59
2022/04/30 02:45:30;;;;;;;;;;;21.40;41.00;;;;;;5168628;27;19952;-56
2022/04/30 02:47:56;;;;;;;;;;;21.40;40.90;;;;;;5172651;27;20385;-58
2022/04/30 02:50:22;;;;;;;;;;;21.30;40.90;;;;;;5170360;27;20350;-58
2022/04/30 02:52:48;;;;;;;;;;;21.30;41.10;;;;;;5168464;27;19927;-59
2022/04/30 02:55:14;;;;;;;;;;;21.30;41.20;;;;;;5170980;27;19927;-57
2022/04/30 02:59:53;;;;;;;;;;;21.30;41.00;;;;;;5166467;27;20126;-57
2022/04/30 03:00:30;;;;;;;;;;;21.30;41.10;;;;;;5165814;27;19931;-56
2022/04/30 03:02:56;;;;;;;;;;;21.30;41.30;;;;;;5173668;27;19922;-56
2022/04/30 03:05:22;;;;;;;;;;;21.20;41.40;;;;;;5164827;27;19929;-59
2022/04/30 03:07:47;;;;;;;;;;;21.30;41.30;;;;;;5164825;27;19926;-57
2022/04/30 03:10:14;;;;;;;;;;;21.30;41.40;;;;;;5170309;27;20397;-57
2022/04/30 03:12:40;;;;;;;;;;;21.20;41.70;;;;;;5163195;27;20338;-57
2022/04/30 03:15:06;;;;;;;;;;;21.20;41.80;;;;;;5145670;27;19927;-58
2022/04/30 03:23:01;;;;;;;;;;;21.30;41.70;;;;;;5164303;27;19931;-59
2022/04/30 03:25:27;;;;;;;;;;;21.30;41.60;;;;;;5169960;27;19979;-58
2022/04/30 03:27:52;;;;;;;;;;;21.30;41.90;;;;;;5164517;27;19929;-55
2022/04/30 03:30:18;;;;;;;;;;;21.30;41.80;;;;;;5151241;27;19930;-59
2022/04/30 03:32:44;;;;;;;;;;;21.30;42.00;;;;;;5160461;27;19930;-55
2022/04/30 03:35:10;;;;;;;;;;;21.30;41.90;;;;;;5163180;27;19927;-58
2022/04/30 03:37:36;;;;;;;;;;;21.40;41.80;;;;;;5169493;27;19927;-58
2022/04/30 03:40:04;;;;;;;;;;;21.30;42.20;;;;;;5164241;27;19931;-57
2022/04/30 03:42:30;;;;;;;;;;;21.30;42.20;;;;;;5164258;27;20277;-58
2022/04/30 03:44:56;;;;;;;;;;;21.20;42.50;;;;;;5169779;27;19930;-58
2022/04/30 03:47:22;;;;;;;;;;;21.20;42.50;;;;;;5164224;27;20059;-58
2022/04/30 03:49:48;;;;;;;;;;;21.30;42.30;;;;;;5148891;27;19936;-58
2022/04/30 03:52:14;;;;;;;;;;;21.30;42.40;;;;;;5161905;27;20401;-59
2022/04/30 03:54:39;;;;;;;;;;;21.30;42.40;;;;;;5163589;27;19922;-57
2022/04/30 03:57:06;;;;;;;;;;;21.30;42.40;;;;;;5169149;27;20267;-58
2022/04/30 03:59:32;;;;;;;;;;;21.30;42.50;;;;;;5163977;27;19971;-57
2022/04/30 04:01:58;;;;;;;;;;;21.30;42.60;;;;;;5164151;27;20594;-58
2022/04/30 04:04:24;;;;;;;;;;;21.20;42.80;;;;;;5169421;27;19927;-57
2022/04/30 04:06:50;;;;;;;;;;;21.20;42.90;;;;;;5163962;27;19937;-57
2022/04/30 04:09:16;;;;;;;;;;;21.30;42.60;;;;;;5163163;27;19927;-58
2022/04/30 04:11:41;;;;;;;;;;;21.30;42.60;;;;;;5165621;27;19923;-54
2022/04/30 04:19:36;;;;;;;;;;;21.20;42.80;;;;;;5169175;27;19937;-58
2022/04/30 04:22:03;;;;;;;;;;;21.30;42.50;;;;;;5163589;27;19930;-59
2022/04/30 04:27:14;;;;;;;;;;;21.20;42.60;;;;;;5164330;27;20414;-58
2022/04/30 04:29:40;;;;;;;;;;;21.30;42.60;;;;;;5161739;27;19934;-59
2022/04/30 04:32:06;;;;;;;;;;;21.10;42.90;;;;;;5168591;27;20293;-50
2022/04/30 04:34:32;;;;;;;;;;;21.10;43.00;;;;;;5163116;27;19954;-58
2022/04/30 04:36:57;;;;;;;;;;;21.30;42.70;;;;;;5163449;27;19966;-59
2022/04/30 04:39:23;;;;;;;;;;;21.30;42.80;;;;;;5168933;27;19937;-58
2022/04/30 04:41:49;;;;;;;;;;;21.30;42.80;;;;;;5163274;27;19927;-58
2022/04/30 04:44:15;;;;;;;;;;;21.20;43.00;;;;;;5162815;27;19923;-57
2022/04/30 04:46:40;;;;;;;;;;;21.10;43.20;;;;;;5146440;27;20356;-57
2022/04/30 04:49:06;;;;;;;;;;;21.20;43.10;;;;;;5162320;27;19922;-57
2022/04/30 04:51:33;;;;;;;;;;;21.20;43.30;;;;;;5168311;27;19975;-58
2022/04/30 04:53:59;;;;;;;;;;;21.30;43.20;;;;;;5162954;27;20392;-57
2022/04/30 04:56:25;;;;;;;;;;;21.30;43.50;;;;;;5162931;27;20145;-56
2022/04/30 04:58:51;;;;;;;;;;;21.30;43.70;;;;;;5168348;27;19927;-52
2022/04/30 05:01:17;;;;;;;;;;;21.00;44.50;;;;;;5162935;27;20369;-57
2022/04/30 05:03:43;;;;;;;;;;;21.30;43.90;;;;;;5160152;27;20164;-57
2022/04/30 05:06:09;;;;;;;;;;;21.30;43.90;;;;;;5166368;27;19933;-58
2022/04/30 05:08:35;;;;;;;;;;;21.10;44.20;;;;;;5162631;27;19933;-56
2022/04/30 05:11:01;;;;;;;;;;;21.20;44.10;;;;;;5168202;27;19927;-59
2022/04/30 05:13:26;;;;;;;;;;;21.30;43.80;;;;;;5162920;27;20460;-58
2022/04/30 05:15:52;;;;;;;;;;;21.20;44.10;;;;;;5144426;27;19922;-57
2022/04/30 05:18:19;;;;;;;;;;;21.30;44.00;;;;;;5149687;27;19923;-59
2022/04/30 05:20:45;;;;;;;;;;;21.20;44.00;;;;;;5162547;27;20275;-57
2022/04/30 05:23:10;;;;;;;;;;;21.30;44.00;;;;;;5139220;27;20133;-57
2022/04/30 05:25:40;;;;;;;;;;;21.20;44.30;;;;;;5148465;27;20338;-51
2022/04/30 05:28:12;;;;;;;;;;;21.00;44.90;;;;;;5161400;27;19923;-57
2022/04/30 05:30:37;;;;;;;;;;;21.20;44.70;;;;;;5163815;27;19930;-53
2022/04/30 05:33:03;;;;;;;;;;;21.20;44.70;;;;;;5167014;27;19937;-56
2022/04/30 05:35:29;;;;;;;;;;;21.10;44.50;;;;;;5162330;27;19974;-55
2022/04/30 05:37:55;;;;;;;;;;;21.20;44.60;;;;;;5167800;27;20366;-54
2022/04/30 05:40:21;;;;;;;;;;;21.10;44.60;;;;;;5159977;27;20293;-58
2022/04/30 05:42:46;;;;;;;;;;;21.20;44.20;;;;;;5160365;27;19988;-56
2022/04/30 05:45:12;;;;;;;;;;;21.10;44.60;;;;;;5167474;27;19927;-55
2022/04/30 05:47:38;;;;;;;;;;;21.20;44.40;;;;;;5162313;27;19923;-59
2022/04/30 05:50:04;;;;;;;;;;;21.20;44.60;;;;;;5162286;27;20006;-55
2022/04/30 05:52:30;;;;;;;;;;;21.20;44.60;;;;;;5167570;27;19930;-58
2022/04/30 05:54:56;;;;;;;;;;;21.20;44.50;;;;;;5161975;27;19934;-50
2022/04/30 05:57:22;;;;;;;;;;;21.20;44.70;;;;;;5167369;27;20434;-56
2022/04/30 05:59:48;;;;;;;;;;;21.30;44.40;;;;;;5158257;27;20342;-58
2022/04/30 06:02:13;;;;;;;;;;;21.10;44.70;;;;;;5160959;27;19971;-49
2022/04/30 06:04:39;;;;;;;;;;;21.20;44.80;;;;;;5167153;27;19923;-58
2022/04/30 06:07:05;;;;;;;;;;;21.30;44.40;;;;;;5161720;27;19929;-58
2022/04/30 06:09:31;;;;;;;;;;;21.10;44.80;;;;;;5161913;27;20432;-47
2022/04/30 06:11:57;;;;;;;;;;;21.10;45.20;;;;;;5167429;27;19933;-58
2022/04/30 06:14:22;;;;;;;;;;;21.30;44.90;;;;;;5161744;27;19970;-57
2022/04/30 06:16:48;;;;;;;;;;;21.30;44.60;;;;;;5164989;27;19930;-58
2022/04/30 06:19:14;;;;;;;;;;;21.30;44.60;;;;;;5159427;27;20424;-56
2022/04/30 06:21:40;;;;;;;;;;;21.20;44.80;;;;;;5161689;27;19945;-53
2022/04/30 06:24:06;;;;;;;;;;;21.10;45.10;;;;;;5166750;27;19960;-57
2022/04/30 06:26:32;;;;;;;;;;;21.20;45.00;;;;;;5142067;27;19931;-54
2022/04/30 06:28:58;;;;;;;;;;;21.20;45.00;;;;;;5161885;27;20172;-56
2022/04/30 06:31:24;;;;;;;;;;;21.20;45.20;;;;;;5167140;27;19926;-57
2022/04/30 06:33:52;;;;;;;;;;;21.20;45.10;;;;;;5161692;27;20346;-57
2022/04/30 06:36:17;;;;;;;;;;;21.10;45.20;;;;;;5162298;27;19948;-56
2022/04/30 06:38:43;;;;;;;;;;;21.30;44.80;;;;;;5161430;27;20960;-55
2022/04/30 06:41:09;;;;;;;;;;;21.20;45.20;;;;;;5164924;27;19927;-53
2022/04/30 06:43:35;;;;;;;;;;;21.20;45.50;;;;;;5170629;27;19930;-58
2022/04/30 06:46:00;;;;;;;;;;;21.30;45.00;;;;;;5165203;27;19930;-55
2022/04/30 06:48:27;;;;;;;;;;;21.30;45.30;;;;;;5165221;27;19930;-58
2022/04/30 06:50:53;;;;;;;;;;;21.20;45.20;;;;;;5170694;27;19947;-58
2022/04/30 06:58:54;;;;;;;;;;;21.20;45.50;;;;;;5170106;27;20029;-58
2022/04/30 07:03:55;;;;;;;;;;;21.20;45.10;;;;;;5165074;27;20375;-55
2022/04/30 07:06:21;;;;;;;;;;;21.10;45.30;;;;;;5170369;27;19927;-55
2022/04/30 07:08:46;;;;;;;;;;;21.30;45.00;;;;;;5164728;27;19971;-57
2022/04/30 07:11:12;;;;;;;;;;;21.30;44.80;;;;;;5167249;27;19972;-58
2022/04/30 07:13:38;;;;;;;;;;;21.30;44.80;;;;;;5164286;27;19927;-56
2022/04/30 07:16:04;;;;;;;;;;;21.00;45.60;;;;;;5163994;27;19929;-57
2022/04/30 07:18:30;;;;;;;;;;;21.20;45.20;;;;;;5169899;27;19922;-55
2022/04/30 07:20:56;;;;;;;;;;;21.20;45.30;;;;;;5164848;27;20385;-58
2022/04/30 07:23:22;;;;;;;;;;;21.20;45.10;;;;;;5164758;27;19923;-59
2022/04/30 07:25:48;;;;;;;;;;;21.30;45.20;;;;;;5169930;27;20386;-54
2022/04/30 07:28:14;;;;;;;;;;;21.20;45.60;;;;;;5160268;27;19922;-57
2022/04/30 07:30:40;;;;;;;;;;;21.30;45.40;;;;;;5162079;27;19923;-56
2022/04/30 07:33:06;;;;;;;;;;;21.30;45.40;;;;;;5167910;27;19927;-56
2022/04/30 07:35:31;;;;;;;;;;;21.20;45.40;;;;;;5164068;27;19923;-58
2022/04/30 07:37:57;;;;;;;;;;;21.20;45.30;;;;;;5169409;27;19934;-58
2022/04/30 07:40:23;;;;;;;;;;;21.30;45.30;;;;;;5164325;27;19930;-50
2022/04/30 07:42:49;;;;;;;;;;;21.00;45.50;;;;;;5145698;27;20394;-58
2022/04/30 07:45:14;;;;;;;;;;;21.20;45.20;;;;;;5169556;27;20370;-58
2022/04/30 07:47:40;;;;;;;;;;;21.20;45.10;;;;;;5164213;27;19937;-58
2022/04/30 07:50:06;;;;;;;;;;;21.20;45.00;;;;;;5160361;27;19990;-56
2022/04/30 07:52:32;;;;;;;;;;;21.10;45.10;;;;;;5167996;27;19923;-49
2022/04/30 07:55:00;;;;;;;;;;;21.20;45.30;;;;;;5163728;27;19922;-58
2022/04/30 07:57:28;;;;;;;;;;;21.30;44.70;;;;;;5169348;27;19971;-58
2022/04/30 07:59:54;;;;;;;;;;;21.30;44.60;;;;;;5163997;27;19922;-58
2022/04/30 08:02:19;;;;;;;;;;;21.30;44.90;;;;;;5164252;27;20346;-56
2022/04/30 08:04:45;;;;;;;;;;;21.30;45.10;;;;;;5169655;27;19930;-55
2022/04/30 08:07:11;;;;;;;;;;;21.30;45.10;;;;;;5161557;27;20322;-58
2022/04/30 08:09:37;;;;;;;;;;;21.20;45.40;;;;;;5161782;27;19983;-56
2022/04/30 08:12:03;;;;;;;;;;;21.20;45.30;;;;;;5168936;27;20374;-57
2022/04/30 08:14:29;;;;;;;;;;;21.30;45.10;;;;;;5144164;27;19976;-56
2022/04/30 08:16:55;;;;;;;;;;;21.20;45.60;;;;;;5168830;27;20013;-56
2022/04/30 08:19:21;;;;;;;;;;;21.30;45.30;;;;;;5145620;27;20277;-57
2022/04/30 08:21:48;;;;;;;;;;;21.10;45.90;;;;;;5163519;27;20045;-59
2022/04/30 08:24:14;;;;;;;;;;;21.20;45.30;;;;;;5169004;27;19931;-55
2022/04/30 08:26:40;;;;;;;;;;;21.00;46.10;;;;;;5159837;27;20021;-57
2022/04/30 08:29:06;;;;;;;;;;;21.30;45.60;;;;;;5162621;27;19958;-57
2022/04/30 08:31:32;;;;;;;;;;;21.30;45.60;;;;;;5168614;27;19922;-56
2022/04/30 08:33:58;;;;;;;;;;;21.20;45.60;;;;;;5163362;27;20436;-57
2022/04/30 08:36:24;;;;;;;;;;;21.00;46.00;;;;;;5146789;27;19960;-58
2022/04/30 08:38:50;;;;;;;;;;;21.30;45.40;;;;;;5167068;27;20385;-53
2022/04/30 08:41:16;;;;;;;;;;;21.10;45.60;;;;;;5163409;27;19955;-58
2022/04/30 08:43:45;;;;;;;;;;;21.40;44.80;;;;;;5166632;27;20186;-58
2022/04/30 08:46:11;;;;;;;;;;;21.30;44.90;;;;;;5160727;27;20214;-58
2022/04/30 08:48:36;;;;;;;;;;;21.20;45.20;;;;;;5158581;27;19927;-56
2022/04/30 08:51:02;;;;;;;;;;;21.20;45.30;;;;;;5168247;27;19930;-59
2022/04/30 08:53:28;;;;;;;;;;;21.30;45.10;;;;;;5162910;27;19930;-53
2022/04/30 08:55:54;;;;;;;;;;;21.10;45.70;;;;;;5163159;27;19923;-59
2022/04/30 08:58:20;;;;;;;;;;;21.20;45.50;;;;;;5168260;27;20358;-53
2022/04/30 09:00:46;;;;;;;;;;;21.10;45.60;;;;;;5162988;27;19922;-57
2022/04/30 09:03:15;;;;;;;;;;;21.20;45.30;;;;;;5163607;27;20033;-57
2022/04/30 09:05:41;;;;;;;;;;;21.20;45.40;;;;;;5162251;27;19929;-54
2022/04/30 09:08:06;;;;;;;;;;;21.20;45.40;;;;;;5162767;27;19923;-55
2022/04/30 09:10:33;;;;;;;;;;;21.20;45.20;;;;;;5168148;27;19929;-58
2022/04/30 09:13:09;;;;;;;;;;;21.30;44.90;;;;;;5162743;27;20297;-50
2022/04/30 09:15:36;;;;;;;;;;;21.20;45.30;;;;;;5162727;27;19929;-58
2022/04/30 09:18:02;;;;;;;;;;;21.30;44.80;;;;;;5168280;27;20374;-55
2022/04/30 09:20:30;;;;;;;;;;;21.20;45.20;;;;;;5160452;27;19922;-54
2022/04/30 09:22:56;;;;;;;;;;;21.30;45.20;;;;;;5160206;27;19933;-55
2022/04/30 09:25:22;;;;;;;;;;;21.30;45.00;;;;;;5167500;27;20146;-55
2022/04/30 09:27:52;;;;;;;;;;;21.30;45.10;;;;;;5162344;27;19931;-58
2022/04/30 09:30:18;;;;;;;;;;;21.20;45.00;;;;;;5168266;27;19939;-58
2022/04/30 09:32:44;;;;;;;;;;;21.20;45.00;;;;;;5162965;27;19954;-58
2022/04/30 09:38:01;;;;;;;;;;;21.30;44.40;;;;;;5167537;27;19934;-57
2022/04/30 09:40:27;;;;;;;;;;;21.30;44.30;;;;;;5158825;27;19971;-59
2022/04/30 09:42:53;;;;;;;;;;;21.20;44.40;;;;;;5161440;27;19929;-51
2022/04/30 09:45:22;;;;;;;;;;;21.10;44.80;;;;;;5167406;27;19929;-59
2022/04/30 09:47:48;;;;;;;;;;;21.30;44.50;;;;;;5142133;27;19927;-53
2022/04/30 09:55:52;;;;;;;;;;;21.20;44.80;;;;;;5122835;27;19929;-57
2022/04/30 09:58:20;;;;;;;;;;;21.30;44.50;;;;;;5158831;27;19999;-54
2022/04/30 10:00:46;;;;;;;;;;;21.20;44.70;;;;;;5166546;27;19970;-58
2022/04/30 10:03:12;;;;;;;;;;;21.20;44.50;;;;;;5161679;27;20433;-55
2022/04/30 10:05:37;;;;;;;;;;;21.00;44.70;;;;;;5161947;27;20090;-57
2022/04/30 10:08:03;;;;;;;;;;;21.30;44.10;;;;;;5167641;27;19926;-56
2022/04/30 10:10:31;;;;;;;;;;;21.00;44.60;;;;;;5162253;27;19923;-54
2022/04/30 10:13:07;;;;;;;;;;;21.30;44.00;;;;;;5148805;27;19926;-57
2022/04/30 10:15:46;;;;;;;;;;;21.10;44.20;;;;;;5146819;27;19938;-47
2022/04/30 10:18:13;;;;;;;;;;;21.20;44.10;;;;;;5144668;27;19922;-57
2022/04/30 10:20:39;;;;;;;;;;;21.20;44.00;;;;;;5170595;27;19945;-54
2022/04/30 10:23:05;;;;;;;;;;;21.10;44.50;;;;;;5146567;27;20377;-57
2022/04/30 10:25:34;;;;;;;;;;;21.30;44.10;;;;;;5165453;27;20374;-57
2022/04/30 10:28:18;;;;;;;;;;;21.10;44.60;;;;;;5171162;27;19923;-58
2022/04/30 10:30:45;;;;;;;;;;;21.30;44.00;;;;;;5165414;27;19923;-59
2022/04/30 10:33:10;;;;;;;;;;;21.30;44.10;;;;;;5165163;27;19922;-56
2022/04/30 10:35:37;;;;;;;;;;;21.20;44.50;;;;;;5167117;27;19934;-56
2022/04/30 10:38:09;;;;;;;;;;;21.10;45.00;;;;;;5160808;27;19933;-58
2022/04/30 10:40:42;;;;;;;;;;;21.30;44.80;;;;;;5165154;27;20458;-56
2022/04/30 10:43:17;;;;;;;;;;;21.30;44.90;;;;;;5152077;27;20289;-55
2022/04/30 10:45:43;;;;;;;;;;;21.20;45.40;;;;;;5165130;27;20377;-57
2022/04/30 10:48:08;;;;;;;;;;;21.30;45.10;;;;;;5165160;27;19971;-57
2022/04/30 10:50:34;;;;;;;;;;;21.20;45.40;;;;;;5150316;27;19930;-52
2022/04/30 10:53:00;;;;;;;;;;;21.10;46.00;;;;;;5162186;27;20374;-56
2022/04/30 10:55:27;;;;;;;;;;;21.30;45.60;;;;;;5168216;27;21312;-51
2022/04/30 10:57:53;;;;;;;;;;;21.10;45.60;;;;;;5164752;27;19927;-48
2022/04/30 11:00:19;;;;;;;;;;;21.20;45.50;;;;;;5164917;27;19962;-58
2022/04/30 11:02:44;;;;;;;;;;;21.20;45.20;;;;;;5170411;27;19987;-49
2022/04/30 11:05:20;;;;;;;;;;;21.10;45.60;;;;;;5164918;27;19926;-54
2022/04/30 11:07:46;;;;;;;;;;;21.20;44.80;;;;;;5164958;27;20209;-55
2022/04/30 11:10:12;;;;;;;;;;;21.20;44.40;;;;;;5169253;27;20202;-55
2022/04/30 11:12:37;;;;;;;;;;;21.20;43.90;;;;;;5161548;27;19929;-56
2022/04/30 11:15:03;;;;;;;;;;;21.10;44.00;;;;;;5167375;27;19930;-56
2022/04/30 11:17:29;;;;;;;;;;;21.30;43.40;;;;;;5166905;27;19929;-50
2022/04/30 11:19:55;;;;;;;;;;;21.10;43.90;;;;;;5164829;27;19922;-54
2022/04/30 11:22:22;;;;;;;;;;;21.20;43.70;;;;;;5170402;27;19929;-58
2022/04/30 11:24:48;;;;;;;;;;;21.20;43.80;;;;;;5164693;27;20231;-53
2022/04/30 11:27:14;;;;;;;;;;;21.20;43.90;;;;;;5163572;27;20003;-55
2022/04/30 11:29:50;;;;;;;;;;;21.30;43.50;;;;;;5148883;27;19942;-54
2022/04/30 11:32:19;;;;;;;;;;;21.10;43.70;;;;;;5163076;27;20360;-58
2022/04/30 11:34:45;;;;;;;;;;;21.30;43.60;;;;;;5164157;27;20328;-52
2022/04/30 11:37:11;;;;;;;;;;;21.10;44.20;;;;;;5169685;27;20335;-58
2022/04/30 11:39:37;;;;;;;;;;;21.30;44.00;;;;;;5164395;27;19922;-53
2022/04/30 11:42:02;;;;;;;;;;;21.10;44.20;;;;;;5169938;27;19923;-54
2022/04/30 11:44:28;;;;;;;;;;;21.30;43.90;;;;;;5145460;27;19929;-58
2022/04/30 11:46:54;;;;;;;;;;;21.20;43.80;;;;;;5144517;27;20442;-55
2022/04/30 11:49:21;;;;;;;;;;;21.00;44.00;;;;;;5166254;27;19922;-59
2022/04/30 11:51:48;;;;;;;;;;;21.30;43.50;;;;;;5163462;27;20345;-58
2022/04/30 11:54:14;;;;;;;;;;;21.20;43.80;;;;;;5163914;27;20206;-49
2022/04/30 11:56:42;;;;;;;;;;;21.10;44.10;;;;;;5169454;27;20313;-56
2022/04/30 11:59:07;;;;;;;;;;;21.30;43.60;;;;;;5164060;27;19923;-57
2022/04/30 12:01:35;;;;;;;;;;;21.20;43.70;;;;;;5166291;27;19971;-55
2022/04/30 12:04:04;;;;;;;;;;;21.20;43.90;;;;;;5148724;27;19923;-56
2022/04/30 12:06:31;;;;;;;;;;;21.10;43.60;;;;;;5160907;27;19923;-56
2022/04/30 12:08:57;;;;;;;;;;;21.20;43.40;;;;;;5167830;27;19927;-50
2022/04/30 12:11:22;;;;;;;;;;;21.10;43.60;;;;;;5163421;27;20425;-56
2022/04/30 12:13:58;;;;;;;;;;;21.30;43.30;;;;;;5163545;27;20014;-55
2022/04/30 12:16:24;;;;;;;;;;;21.20;43.70;;;;;;5169228;27;19922;-56
2022/04/30 12:24:40;;;;;;;;;;;21.10;44.00;;;;;;5166774;27;20010;-57
2022/04/30 12:27:08;;;;;;;;;;;21.30;43.30;;;;;;5162539;27;19937;-57
2022/04/30 12:29:34;;;;;;;;;;;21.20;43.60;;;;;;5163207;27;20049;-57
2022/04/30 12:32:02;;;;;;;;;;;21.00;44.10;;;;;;5168499;27;19923;-56
2022/04/30 12:34:27;;;;;;;;;;;21.20;43.70;;;;;;5163513;27;20429;-57
2022/04/30 12:36:57;;;;;;;;;;;21.10;43.70;;;;;;5163152;27;19975;-57
2022/04/30 12:39:23;;;;;;;;;;;21.30;43.20;;;;;;5168812;27;19930;-56
2022/04/30 12:41:49;;;;;;;;;;;21.30;42.90;;;;;;5162673;27;20428;-59
2022/04/30 12:44:16;;;;;;;;;;;21.30;42.40;;;;;;5159627;27;20441;-58
2022/04/30 12:46:45;;;;;;;;;;;21.20;42.30;;;;;;5167782;27;19922;-55
2022/04/30 12:49:12;;;;;;;;;;;21.00;42.50;;;;;;5162968;27;20275;-56
2022/04/30 12:51:38;;;;;;;;;;;21.30;42.00;;;;;;5168543;27;19929;-55
2022/04/30 12:54:05;;;;;;;;;;;21.20;42.30;;;;;;5163277;27;19933;-57
2022/04/30 12:56:31;;;;;;;;;;;21.30;41.90;;;;;;5140932;27;19924;-58
2022/04/30 12:58:57;;;;;;;;;;;21.30;42.00;;;;;;5168578;27;19937;-57
2022/04/30 13:01:23;;;;;;;;;;;21.30;41.70;;;;;;5160223;27;19923;-56
2022/04/30 13:03:49;;;;;;;;;;;21.20;41.60;;;;;;5160927;27;20230;-53
2022/04/30 13:06:15;;;;;;;;;;;21.20;41.60;;;;;;5168045;27;19923;-58
2022/04/30 13:14:10;;;;;;;;;;;21.20;41.60;;;;;;5168208;27;19927;-55
2022/04/30 13:16:36;;;;;;;;;;;21.20;41.80;;;;;;5163067;27;19922;-53
2022/04/30 13:19:02;;;;;;;;;;;21.30;41.80;;;;;;5161827;27;19945;-57
2022/04/30 13:21:29;;;;;;;;;;;21.10;42.30;;;;;;5165281;27;19930;-58
2022/04/30 13:23:54;;;;;;;;;;;21.20;42.10;;;;;;5162103;27;20174;-56
2022/04/30 13:26:23;;;;;;;;;;;21.10;42.40;;;;;;5167806;27;19930;-57
2022/04/30 13:28:49;;;;;;;;;;;21.30;42.00;;;;;;5162596;27;19973;-51
2022/04/30 13:31:14;;;;;;;;;;;21.20;42.40;;;;;;5162399;27;19923;-57
2022/04/30 13:33:40;;;;;;;;;;;21.30;42.20;;;;;;5167792;27;20025;-51
2022/04/30 13:36:07;;;;;;;;;;;21.10;42.60;;;;;;5162701;27;19926;-58
2022/04/30 13:38:33;;;;;;;;;;;21.20;42.30;;;;;;5159074;27;19978;-55
2022/04/30 13:40:59;;;;;;;;;;;21.10;42.60;;;;;;5166292;27;20328;-58
2022/04/30 13:43:25;;;;;;;;;;;21.30;42.00;;;;;;5161918;27;20397;-57
2022/04/30 13:45:51;;;;;;;;;;;21.10;42.60;;;;;;5167566;27;19927;-58
2022/04/30 13:48:18;;;;;;;;;;;21.30;42.00;;;;;;5143204;27;19935;-49
2022/04/30 13:50:43;;;;;;;;;;;21.10;42.50;;;;;;5161780;27;20017;-59
2022/04/30 13:53:09;;;;;;;;;;;21.20;42.40;;;;;;5167856;27;19934;-50
2022/04/30 13:55:35;;;;;;;;;;;21.10;42.40;;;;;;5161136;27;19926;-57
2022/04/30 13:58:01;;;;;;;;;;;21.30;42.00;;;;;;5158832;27;20203;-51
2022/04/30 14:00:28;;;;;;;;;;;21.20;42.20;;;;;;5166970;27;19923;-54
2022/04/30 14:02:54;;;;;;;;;;;21.20;42.00;;;;;;5161936;27;19923;-58
2022/04/30 14:05:20;;;;;;;;;;;21.20;41.70;;;;;;5166241;27;19970;-54
2022/04/30 14:07:46;;;;;;;;;;;21.10;42.30;;;;;;5163768;27;19979;-55
2022/04/30 14:10:12;;;;;;;;;;;21.20;42.10;;;;;;5162113;27;19944;-53
2022/04/30 14:12:38;;;;;;;;;;;21.10;42.00;;;;;;5167689;27;19922;-53
2022/04/30 14:15:04;;;;;;;;;;;21.20;42.00;;;;;;5158967;27;20009;-57
2022/04/30 14:20:15;;;;;;;;;;;21.00;42.40;;;;;;5167077;27;19970;-55
2022/04/30 14:22:41;;;;;;;;;;;21.30;42.10;;;;;;5161789;27;19991;-54
2022/04/30 14:25:08;;;;;;;;;;;21.00;42.50;;;;;;5161757;27;19923;-54
2022/04/30 14:27:35;;;;;;;;;;;21.20;42.20;;;;;;5167234;27;20387;-55
2022/04/30 14:30:01;;;;;;;;;;;21.10;42.10;;;;;;5161816;27;20021;-49
2022/04/30 14:32:27;;;;;;;;;;;21.10;42.00;;;;;;5164139;27;20372;-57
2022/04/30 14:34:54;;;;;;;;;;;21.30;41.60;;;;;;5142046;27;19930;-53
2022/04/30 14:37:19;;;;;;;;;;;21.20;41.90;;;;;;5160786;27;20361;-58
2022/04/30 14:39:45;;;;;;;;;;;21.20;41.70;;;;;;5166815;27;19922;-56
2022/04/30 14:42:11;;;;;;;;;;;21.20;41.90;;;;;;5161696;27;19926;-56
2022/04/30 14:44:40;;;;;;;;;;;21.20;41.90;;;;;;5161614;27;19935;-52
2022/04/30 14:47:08;;;;;;;;;;;21.10;41.90;;;;;;5166928;27;19927;-58
2022/04/30 14:49:34;;;;;;;;;;;21.30;41.10;;;;;;5161470;27;20433;-58
2022/04/30 14:51:59;;;;;;;;;;;21.30;40.30;;;;;;5158168;27;19964;-58
2022/04/30 14:54:25;;;;;;;;;;;21.30;40.20;;;;;;5165100;27;19923;-58
2022/04/30 14:56:51;;;;;;;;;;;21.30;40.20;;;;;;5161044;27;19987;-53
2022/04/30 14:59:17;;;;;;;;;;;21.10;40.80;;;;;;5148310;27;19923;-50
2022/04/30 15:01:42;;;;;;;;;;;21.20;40.70;;;;;;5143827;27;19979;-58
2022/04/30 15:04:08;;;;;;;;;;;21.30;40.60;;;;;;5164934;27;19962;-51